Weather at Lloyd Stearman Field

Public forecast

Using degrees Fahrenheit for public forecast. Weather courtesy of forecast.io.

Closest aviation weather report (METAR) to Lloyd Stearman Field

Closest report is Colonel James Jabara Airport, 5.4 nm (10.0 km) WSW. Retrieved 2021/08/03 18:54 UTC (30 minutes ago):

KAAO 031854Z AUTO 14005KT 9SM CLR 28/13 A3009 RMK AO2 SLP179 T02830133

Closest aviation forecast (TAF) to Lloyd Stearman Field

Closest forecast is Mc Connell Air Force Base, 11.9 nm (22.0 km) SW. Retrieved 2021/08/03 18:03 UTC (1 hour ago):

TAF KIAB 031800Z 0318/0424 09007KT 9999 FEW060 QNH3001INS BECMG 0414/0415 16009KT 9999 SCT060 BKN250 QNH3001INS TX29/0420Z TN17/0411Z